createdAt,value
2022-08-14T00:02:22.153Z,92564.34
2022-08-14T00:05:28.652Z,92558.84
2022-08-14T00:08:44.888Z,92561.28
2022-08-14T00:11:49.303Z,92569.88
2022-08-14T00:14:55.467Z,92575.25
2022-08-14T00:17:59.436Z,92571.22
2022-08-14T00:21:03.416Z,92570.56
2022-08-14T00:24:07.662Z,92571.19
2022-08-14T00:27:13.294Z,92569.75
2022-08-14T00:30:21.502Z,92576.34
2022-08-14T00:33:51.838Z,92570.69
2022-08-14T00:36:51.212Z,92567.16
2022-08-14T00:39:55.083Z,92573.03
2022-08-14T00:42:59.142Z,92564.22
2022-08-14T00:46:08.035Z,92564.53
2022-08-14T00:49:14.474Z,92562.34
2022-08-14T00:52:18.603Z,92566.97
2022-08-14T00:55:23.526Z,92556.03
2022-08-14T00:58:32.935Z,92553.22
2022-08-14T01:01:37.943Z,92561.25
2022-08-14T01:04:53.765Z,92558.09
2022-08-14T01:07:59.400Z,92555.28
2022-08-14T01:11:03.798Z,92555.59
2022-08-14T01:14:25.732Z,92561.00
2022-08-14T01:17:52.322Z,92545.41
2022-08-14T01:21:12.649Z,92552.25
2022-08-14T01:24:22.962Z,92543.75
2022-08-14T01:27:36.646Z,92544.41
2022-08-14T01:31:00.478Z,92555.00
2022-08-14T01:35:19.421Z,92550.19
2022-08-14T01:37:31.609Z,92551.28
2022-08-14T01:40:41.018Z,92539.06
2022-08-14T01:43:56.632Z,92547.19
2022-08-14T01:47:21.493Z,92550.53
2022-08-14T01:50:26.522Z,92552.19
2022-08-14T01:53:35.805Z,92550.69
2022-08-14T01:56:39.987Z,92549.72
2022-08-14T01:59:45.613Z,92543.81
2022-08-14T02:02:52.823Z,92544.81
2022-08-14T02:06:03.953Z,92538.81
2022-08-14T02:09:24.630Z,92532.34
2022-08-14T02:12:30.827Z,92536.81
2022-08-14T02:15:35.094Z,92530.38
2022-08-14T02:18:40.503Z,92527.00
2022-08-14T02:21:47.206Z,92524.75
2022-08-14T02:24:52.195Z,92526.34
2022-08-14T02:28:23.590Z,92523.69
2022-08-14T02:31:19.992Z,92517.94
2022-08-14T02:34:37.028Z,92525.44
2022-08-14T02:37:48.310Z,92520.56
2022-08-14T02:40:52.226Z,92517.44
2022-08-14T02:44:00.826Z,92524.38
2022-08-14T02:47:07.046Z,92512.66
2022-08-14T02:50:11.131Z,92518.88
2022-08-14T02:53:14.535Z,92509.31
2022-08-14T02:56:30.210Z,92513.00
2022-08-14T02:59:44.494Z,92504.75
2022-08-14T03:02:58.727Z,92499.41
2022-08-14T03:06:05.305Z,92494.69
2022-08-14T03:09:10.007Z,92491.31
2022-08-14T03:12:26.945Z,92495.50
2022-08-14T03:15:40.138Z,92494.31
2022-08-14T03:18:47.079Z,92488.47
2022-08-14T03:21:56.042Z,92489.22
2022-08-14T03:25:02.905Z,92486.91
2022-08-14T03:28:14.633Z,92489.13
2022-08-14T03:31:34.321Z,92487.50
2022-08-14T03:34:52.798Z,92485.16
2022-08-14T03:39:15.879Z,92476.63
2022-08-14T03:41:36.275Z,92476.94
2022-08-14T03:45:25.438Z,92477.38
2022-08-14T03:48:30.643Z,92471.22
2022-08-14T03:51:35.902Z,92471.31
2022-08-14T03:54:40.037Z,92470.03
2022-08-14T03:57:44.621Z,92468.91
2022-08-14T04:00:48.993Z,92468.97
2022-08-14T04:03:58.613Z,92461.34
2022-08-14T04:07:02.846Z,92461.03
2022-08-14T04:10:08.265Z,92462.91
2022-08-14T04:13:12.474Z,92460.97
2022-08-14T04:16:20.902Z,92454.47
2022-08-14T04:19:28.101Z,92449.72
2022-08-14T04:22:37.338Z,92447.22
2022-08-14T04:25:41.504Z,92442.53
2022-08-14T04:29:07.042Z,92438.53
2022-08-14T04:33:02.520Z,92443.84
2022-08-14T04:35:53.546Z,92430.72
2022-08-14T04:39:16.156Z,92440.94
2022-08-14T04:42:52.229Z,92427.44
2022-08-14T04:45:56.428Z,92427.75
2022-08-14T04:49:00.890Z,92424.34
2022-08-14T04:52:19.117Z,92419.50
2022-08-14T04:55:27.983Z,92418.03
2022-08-14T04:58:36.040Z,92415.28
2022-08-14T05:01:48.644Z,92413.50
2022-08-14T05:04:58.613Z,92409.56
2022-08-14T05:08:09.808Z,92407.16
2022-08-14T05:11:13.990Z,92411.25
2022-08-14T05:14:46.905Z,92394.19
2022-08-14T05:17:53.977Z,92408.00
2022-08-14T05:21:56.620Z,92402.44
2022-08-14T05:24:34.739Z,92405.06
2022-08-14T05:27:38.752Z,92396.44
2022-08-14T05:30:44.686Z,92403.53
2022-08-14T05:33:56.525Z,92390.44
2022-08-14T05:37:06.695Z,92395.38
2022-08-14T05:40:11.086Z,92389.78
2022-08-14T05:43:17.435Z,92385.94
2022-08-14T05:46:26.337Z,92374.31
2022-08-14T05:49:33.438Z,92372.34
2022-08-14T05:52:39.335Z,92379.34
2022-08-14T05:55:44.877Z,92381.34
2022-08-14T05:58:48.929Z,92379.16
2022-08-14T06:01:52.407Z,92378.03
2022-08-14T06:04:55.514Z,92367.53
2022-08-14T06:08:03.190Z,92377.59
2022-08-14T06:11:14.877Z,92374.22
2022-08-14T06:14:24.457Z,92367.78
2022-08-14T06:17:28.232Z,92367.13
2022-08-14T06:20:42.551Z,92366.75
2022-08-14T06:23:49.082Z,92375.66
2022-08-14T06:26:54.372Z,92363.28
2022-08-14T06:30:15.239Z,92367.03
2022-08-14T06:33:20.866Z,92371.41
2022-08-14T06:36:25.602Z,92379.56
2022-08-14T06:39:36.359Z,92363.91
2022-08-14T06:42:42.116Z,92379.13
2022-08-14T06:45:50.211Z,92360.38
2022-08-14T06:48:57.706Z,92347.06
2022-08-14T06:52:01.860Z,92347.31
2022-08-14T06:55:09.727Z,92348.13
2022-08-14T06:58:28.638Z,92343.84
2022-08-14T07:01:51.544Z,92351.13
2022-08-14T07:05:23.133Z,92343.84
2022-08-14T07:08:31.352Z,92341.13
2022-08-14T07:11:35.913Z,92342.72
2022-08-14T07:14:39.386Z,92344.84
2022-08-14T07:17:52.043Z,92346.72
2022-08-14T07:20:57.402Z,92345.31
2022-08-14T07:24:01.389Z,92341.88
2022-08-14T07:27:04.981Z,92339.09
2022-08-14T07:30:09.976Z,92345.03
2022-08-14T07:33:42.053Z,92343.97
2022-08-14T07:36:58.196Z,92338.94
2022-08-14T07:40:06.084Z,92330.19
2022-08-14T07:43:14.439Z,92330.19
2022-08-14T07:46:21.152Z,92319.09
2022-08-14T07:49:35.134Z,92329.34
2022-08-14T07:52:39.199Z,92331.59
2022-08-14T07:56:00.521Z,92327.41
2022-08-14T07:59:13.410Z,92327.94
2022-08-14T08:02:20.641Z,92328.00
2022-08-14T08:05:26.765Z,92333.16
2022-08-14T08:08:32.270Z,92328.41
2022-08-14T08:11:39.761Z,92323.66
2022-08-14T08:14:56.948Z,92329.31
2022-08-14T08:18:08.498Z,92321.19
2022-08-14T08:21:33.366Z,92318.53
2022-08-14T08:24:39.341Z,92325.22
2022-08-14T08:27:45.463Z,92327.22
2022-08-14T08:31:00.627Z,92334.47
2022-08-14T08:34:07.338Z,92327.97
2022-08-14T08:37:18.397Z,92325.00
2022-08-14T08:40:30.926Z,92323.75
2022-08-14T08:43:36.763Z,92326.25
2022-08-14T08:46:45.136Z,92334.75
2022-08-14T08:49:59.614Z,92322.81
2022-08-14T08:53:06.960Z,92332.34
2022-08-14T08:56:10.738Z,92331.13
2022-08-14T08:59:34.658Z,92325.88
2022-08-14T09:02:37.659Z,92334.22
2022-08-14T09:05:55.152Z,92324.44
2022-08-14T09:08:59.989Z,92328.91
2022-08-14T09:12:08.016Z,92322.72
2022-08-14T09:15:17.288Z,92325.94
2022-08-14T09:18:28.254Z,92327.59
2022-08-14T09:21:31.989Z,92331.16
2022-08-14T09:24:44.024Z,92323.31
2022-08-14T09:27:48.887Z,92321.78
2022-08-14T09:30:57.822Z,92329.31
2022-08-14T09:34:58.198Z,92335.38
2022-08-14T09:38:27.230Z,92331.53
2022-08-14T09:42:17.483Z,92335.34
2022-08-14T09:45:40.271Z,92345.13
2022-08-14T09:49:16.202Z,92344.53
2022-08-14T09:52:33.486Z,92349.72
2022-08-14T09:55:42.432Z,92339.44
2022-08-14T09:58:48.004Z,92345.56
2022-08-14T10:01:52.611Z,92342.06
2022-08-14T10:05:10.276Z,92348.25
2022-08-14T10:08:26.122Z,92348.69
2022-08-14T10:11:36.448Z,92352.41
2022-08-14T10:14:41.002Z,92347.25
2022-08-14T10:17:45.002Z,92352.50
2022-08-14T10:21:02.130Z,92348.81
2022-08-14T10:24:09.395Z,92350.28
2022-08-14T10:27:23.829Z,92356.94
2022-08-14T10:30:39.700Z,92360.75
2022-08-14T10:33:47.954Z,92349.41
2022-08-14T10:37:04.848Z,92357.81
2022-08-14T10:40:44.303Z,92359.31
2022-08-14T10:44:08.441Z,92359.22
2022-08-14T10:48:07.160Z,92363.31
2022-08-14T10:51:00.935Z,92369.06
2022-08-14T10:54:35.254Z,92366.13
2022-08-14T10:57:36.687Z,92368.72
2022-08-14T11:00:47.186Z,92372.56
2022-08-14T11:03:56.791Z,92369.50
2022-08-14T11:07:01.568Z,92374.97
2022-08-14T11:10:17.012Z,92373.94
2022-08-14T11:13:28.882Z,92374.06
2022-08-14T11:16:33.757Z,92376.69
2022-08-14T11:19:42.952Z,92379.50
2022-08-14T11:23:01.528Z,92384.56
2022-08-14T11:26:08.161Z,92389.94
2022-08-14T11:29:12.538Z,92376.22
2022-08-14T11:32:16.804Z,92385.50
2022-08-14T11:35:26.951Z,92390.56
2022-08-14T11:38:48.797Z,92389.97
2022-08-14T11:41:58.331Z,92388.59
2022-08-14T11:45:11.476Z,92393.84
2022-08-14T11:49:04.453Z,92402.63
2022-08-14T11:51:55.430Z,92393.75
2022-08-14T11:55:03.383Z,92403.25
2022-08-14T11:58:11.192Z,92407.22
2022-08-14T12:01:15.866Z,92405.91
2022-08-14T12:04:32.273Z,92403.63
2022-08-14T12:07:36.616Z,92411.00
2022-08-14T12:10:47.360Z,92407.03
2022-08-14T12:13:56.039Z,92415.09
2022-08-14T12:17:13.115Z,92421.03
2022-08-14T12:20:29.906Z,92426.38
2022-08-14T12:23:36.507Z,92429.41
2022-08-14T12:26:41.947Z,92434.97
2022-08-14T12:29:55.382Z,92438.72
2022-08-14T12:32:59.750Z,92435.59
2022-08-14T12:36:06.278Z,92437.66
2022-08-14T12:39:24.183Z,92442.94
2022-08-14T12:42:39.594Z,92449.50
2022-08-14T12:45:52.331Z,92452.22
2022-08-14T12:48:57.804Z,92456.63
2022-08-14T12:52:03.449Z,92457.66
2022-08-14T12:55:15.996Z,92462.34
2022-08-14T12:58:35.503Z,92463.16
2022-08-14T13:01:58.982Z,92471.75
2022-08-14T13:05:05.407Z,92471.91
2022-08-14T13:08:34.149Z,92475.06
2022-08-14T13:11:45.570Z,92471.31
2022-08-14T13:14:51.433Z,92474.34
2022-08-14T13:17:57.295Z,92477.00
2022-08-14T13:21:05.759Z,92479.28
2022-08-14T13:24:13.616Z,92490.97
2022-08-14T13:27:19.543Z,92494.03
2022-08-14T13:30:25.456Z,92484.84
2022-08-14T13:33:30.214Z,92481.78
2022-08-14T13:36:51.634Z,92494.78
2022-08-14T13:39:58.906Z,92494.66
2022-08-14T13:43:04.398Z,92498.53
2022-08-14T13:46:08.379Z,92488.56
2022-08-14T13:49:14.959Z,92497.38
2022-08-14T13:52:51.386Z,92496.34
2022-08-14T13:55:52.113Z,92486.19
2022-08-14T13:59:02.261Z,92485.47
2022-08-14T14:02:09.061Z,92479.50
2022-08-14T14:05:16.044Z,92486.84
2022-08-14T14:08:45.796Z,92486.84
2022-08-14T14:11:53.105Z,92484.22
2022-08-14T14:14:57.376Z,92487.25
2022-08-14T14:18:29.652Z,92484.09
2022-08-14T14:21:34.844Z,92479.78
2022-08-14T14:24:41.028Z,92474.72
2022-08-14T14:27:53.318Z,92483.44
2022-08-14T14:30:59.138Z,92487.91
2022-08-14T14:34:07.701Z,92488.50
2022-08-14T14:37:25.134Z,92493.88
2022-08-14T14:40:53.623Z,92484.38
2022-08-14T14:43:55.546Z,92484.38
2022-08-14T14:47:01.336Z,92489.16
2022-08-14T14:50:05.540Z,92490.06
2022-08-14T14:53:13.390Z,92487.03
2022-08-14T14:56:49.689Z,92490.97
2022-08-14T14:59:41.071Z,92488.94
2022-08-14T15:02:51.473Z,92481.34
2022-08-14T15:05:56.711Z,92481.31
2022-08-14T15:09:04.840Z,92488.31
2022-08-14T15:12:34.346Z,92493.97
2022-08-14T15:15:37.330Z,92488.25
2022-08-14T15:18:46.925Z,92492.19
2022-08-14T15:21:52.954Z,92493.78
2022-08-14T15:24:57.431Z,92503.22
2022-08-14T15:28:02.517Z,92498.63
2022-08-14T15:31:09.083Z,92501.09
2022-08-14T15:34:44.705Z,92500.94
2022-08-14T15:37:42.107Z,92505.25
2022-08-14T15:40:51.748Z,92498.50
2022-08-14T15:44:00.857Z,92506.69
2022-08-14T15:47:07.754Z,92507.06
2022-08-14T15:50:13.386Z,92509.06
2022-08-14T15:53:17.730Z,92508.44
2022-08-14T15:56:42.170Z,92520.25
2022-08-14T16:00:03.076Z,92518.56
2022-08-14T16:03:15.825Z,92512.19
2022-08-14T16:06:31.049Z,92524.47
2022-08-14T16:09:34.232Z,92516.72
2022-08-14T16:12:41.685Z,92522.50
2022-08-14T16:15:53.601Z,92520.22
2022-08-14T16:19:00.151Z,92519.91
2022-08-14T16:23:00.344Z,92523.00
2022-08-14T16:25:34.767Z,92530.50
2022-08-14T16:28:39.836Z,92527.38
2022-08-14T16:31:45.419Z,92521.97
2022-08-14T16:34:54.745Z,92520.47
2022-08-14T16:38:19.709Z,92524.53
2022-08-14T16:41:28.627Z,92520.34
2022-08-14T16:44:38.361Z,92515.34
2022-08-14T16:47:47.877Z,92520.22
2022-08-14T16:50:54.236Z,92520.56
2022-08-14T16:54:03.459Z,92518.44
2022-08-14T16:57:26.712Z,92520.53
2022-08-14T17:00:43.920Z,92523.88
2022-08-14T17:03:59.092Z,92521.09
2022-08-14T17:07:05.544Z,92519.34
2022-08-14T17:10:12.486Z,92530.50
2022-08-14T17:13:27.313Z,92530.59
2022-08-14T17:16:57.007Z,92524.59
2022-08-14T17:20:52.928Z,92515.31
2022-08-14T17:23:29.943Z,92522.28
2022-08-14T17:26:47.006Z,92518.84
2022-08-14T17:29:57.316Z,92524.97
2022-08-14T17:33:13.736Z,92517.47
2022-08-14T17:36:24.472Z,92529.22
2022-08-14T17:39:39.875Z,92517.88
2022-08-14T17:42:51.081Z,92523.09
2022-08-14T17:45:56.227Z,92515.00
2022-08-14T17:49:16.745Z,92520.16
2022-08-14T17:52:36.259Z,92522.06
2022-08-14T17:56:03.497Z,92518.41
2022-08-14T17:59:07.472Z,92513.06
2022-08-14T18:02:16.826Z,92513.75
2022-08-14T18:05:22.940Z,92515.00
2022-08-14T18:08:32.269Z,92512.00
2022-08-14T18:11:45.469Z,92505.19
2022-08-14T18:14:53.145Z,92505.81
2022-08-14T18:17:58.614Z,92511.41
2022-08-14T18:21:42.865Z,92521.25
2022-08-14T18:24:29.773Z,92524.56
2022-08-14T18:27:41.773Z,92533.94
2022-08-14T18:30:58.904Z,92538.63
2022-08-14T18:34:31.174Z,92537.16
2022-08-14T18:37:36.513Z,92519.38
2022-08-14T18:40:41.012Z,92524.03
2022-08-14T18:43:59.185Z,92525.91
2022-08-14T18:47:10.098Z,92529.25
2022-08-14T18:50:26.803Z,92527.84
2022-08-14T18:53:51.572Z,92532.59
2022-08-14T18:57:00.208Z,92527.41
2022-08-14T19:00:35.234Z,92528.16
2022-08-14T19:03:38.295Z,92526.22
2022-08-14T19:06:55.749Z,92533.47
2022-08-14T19:10:06.820Z,92526.44
2022-08-14T19:13:11.942Z,92536.06
2022-08-14T19:16:26.403Z,92537.81
2022-08-14T19:19:39.423Z,92531.66
2022-08-14T19:22:43.800Z,92532.59
2022-08-14T19:25:52.126Z,92531.13
2022-08-14T19:28:57.437Z,92532.50
2022-08-14T19:32:16.484Z,92535.25
2022-08-14T19:35:48.482Z,92529.34
2022-08-14T19:38:57.243Z,92539.47
2022-08-14T19:42:01.793Z,92536.81
2022-08-14T19:45:15.077Z,92537.47
2022-08-14T19:48:18.775Z,92528.22
2022-08-14T19:51:23.139Z,92534.44
2022-08-14T19:54:32.685Z,92532.38
2022-08-14T19:57:38.366Z,92531.66
2022-08-14T20:00:57.245Z,92540.88
2022-08-14T20:04:03.005Z,92534.16
2022-08-14T20:07:08.970Z,92536.94
2022-08-14T20:11:05.840Z,92541.88
2022-08-14T20:14:12.562Z,92534.69
2022-08-14T20:17:25.651Z,92534.63
2022-08-14T20:20:30.467Z,92535.97
2022-08-14T20:23:37.925Z,92540.69
2022-08-14T20:26:47.135Z,92534.03
2022-08-14T20:30:34.862Z,92538.13
2022-08-14T20:33:47.706Z,92535.53
2022-08-14T20:37:22.723Z,92549.63
2022-08-14T20:40:26.513Z,92548.34
2022-08-14T20:43:53.017Z,92561.28
2022-08-14T20:47:04.282Z,92553.88
2022-08-14T20:50:28.220Z,92559.16
2022-08-14T20:53:35.710Z,92563.19
2022-08-14T20:56:45.369Z,92562.53
2022-08-14T20:59:56.571Z,92570.59
2022-08-14T21:03:28.782Z,92558.34
2022-08-14T21:07:23.468Z,92567.78
2022-08-14T21:10:35.298Z,92571.81
2022-08-14T21:14:20.830Z,92568.50
2022-08-14T21:16:59.332Z,92572.09
2022-08-14T21:20:25.871Z,92561.38
2022-08-14T21:23:32.759Z,92572.13
2022-08-14T21:26:53.201Z,92582.16
2022-08-14T21:30:00.782Z,92586.16
2022-08-14T21:33:05.475Z,92587.53
2022-08-14T21:36:21.862Z,92587.50
2022-08-14T21:39:26.003Z,92593.47
2022-08-14T21:42:30.497Z,92592.81
2022-08-14T21:45:35.335Z,92590.16
2022-08-14T21:48:44.400Z,92602.91
2022-08-14T21:51:58.900Z,92610.38
2022-08-14T21:55:12.146Z,92623.19
2022-08-14T21:58:51.713Z,92626.00
2022-08-14T22:02:00.927Z,92631.41
2022-08-14T22:05:06.187Z,92628.00
2022-08-14T22:08:14.341Z,92635.38
2022-08-14T22:11:21.189Z,92621.94
2022-08-14T22:14:26.694Z,92633.91
2022-08-14T22:17:34.195Z,92634.44
2022-08-14T22:20:39.845Z,92632.19
2022-08-14T22:23:43.509Z,92636.06
2022-08-14T22:26:48.538Z,92639.94
2022-08-14T22:29:54.975Z,92638.47
2022-08-14T22:33:03.012Z,92639.41
2022-08-14T22:36:26.581Z,92635.59
2022-08-14T22:40:48.412Z,92635.13
2022-08-14T22:43:00.063Z,92639.66
2022-08-14T22:46:14.737Z,92632.38
2022-08-14T22:50:30.189Z,92633.72
2022-08-14T22:52:49.611Z,92632.09
2022-08-14T22:55:54.306Z,92625.56
2022-08-14T22:59:03.642Z,92621.41
2022-08-14T23:02:22.293Z,92635.00
2022-08-14T23:05:39.769Z,92630.63
2022-08-14T23:08:44.467Z,92636.97
2022-08-14T23:12:05.803Z,92644.09
2022-08-14T23:15:30.196Z,92657.63
2022-08-14T23:18:35.144Z,92662.53
2022-08-14T23:21:46.052Z,92665.25
2022-08-14T23:24:51.463Z,92660.38
2022-08-14T23:28:02.942Z,92658.81
2022-08-14T23:31:10.439Z,92659.13
2022-08-14T23:34:20.289Z,92658.22
2022-08-14T23:37:24.253Z,92653.97
2022-08-14T23:40:32.109Z,92665.88
2022-08-14T23:43:36.595Z,92667.59
2022-08-14T23:46:40.760Z,92666.72
2022-08-14T23:50:01.149Z,92674.06
2022-08-14T23:53:48.780Z,92675.16
2022-08-14T23:57:02.337Z,92685.28
